Terminal Aerodrome Forecast
Issued by NWS

Home | Current Version | Previous Version | Text Only | Print | Product List | Glossary On
Versions: 1 2 3 4 5 6 7 8 9 10 11 12 13 14 15 16 17 18 19 20 21 22 23 24 25 26 27
000
FTUS43 KDLH 222300
TAFHIB
TAF
KHIB 222340Z 2300/2324 21009G16KT P6SM SCT080 BKN250
     FM230600 24011G21KT 4SM -FZRA BR OVC013
     FM231000 25008KT P6SM OVC008
     FM231600 29009KT P6SM -SNPL OVC015=

USA.gov is the U.S. government's official web portal to all federal, state and local government web resources and services.